Time;durP1;ratioP1;P1;durP2;ratioP2;P2;SDS_P1;SDS_P2;PMS_P1;PMS_P2;Temp;Humidity;BMP_temperature;BMP_pressure;BME280_temperature;BME280_humidity;BME280_pressure;Samples;Min_cycle;Max_cycle;Signal;HPM_P1;HPM_P2
2023/06/06 00:02:16;;;;;;;14.43;9.70;;;19.20;99.90;;;;;;5039516;28;20126;-74
2023/06/06 00:04:45;;;;;;;17.13;10.20;;;19.20;99.90;;;;;;5036916;28;20045;-74
2023/06/06 00:07:12;;;;;;;12.73;9.90;;;19.10;99.90;;;;;;5038808;28;20385;-74
2023/06/06 00:09:38;;;;;;;14.23;10.15;;;19.00;99.90;;;;;;5040109;28;20599;-74
2023/06/06 00:12:04;;;;;;;12.43;9.48;;;19.00;99.90;;;;;;5041233;28;20033;-74
2023/06/06 00:14:31;;;;;;;11.73;9.95;;;19.00;99.90;;;;;;5038086;28;20021;-74
2023/06/06 00:16:58;;;;;;;14.32;9.95;;;18.90;99.90;;;;;;5041441;28;20398;-74
2023/06/06 00:19:24;;;;;;;16.48;10.45;;;18.90;99.90;;;;;;5042354;28;20024;-74
2023/06/06 00:21:50;;;;;;;10.73;8.68;;;18.90;99.90;;;;;;5032055;28;20033;-74
2023/06/06 00:24:17;;;;;;;21.25;10.43;;;18.80;99.90;;;;;;5035324;28;20155;-74
2023/06/06 00:26:43;;;;;;;15.52;11.05;;;18.80;99.90;;;;;;5040502;28;20090;-74
2023/06/06 00:29:09;;;;;;;12.70;10.10;;;18.70;99.90;;;;;;5039610;28;23036;-74
2023/06/06 00:31:34;;;;;;;15.25;10.25;;;18.60;99.90;;;;;;5040088;28;20040;-74
2023/06/06 00:34:00;;;;;;;13.48;9.73;;;18.60;99.90;;;;;;5034757;28;20029;-74
2023/06/06 00:36:26;;;;;;;12.23;9.50;;;18.60;99.90;;;;;;5037726;28;20497;-74
2023/06/06 00:38:51;;;;;;;13.85;10.48;;;18.60;99.90;;;;;;5035290;28;20028;-74
2023/06/06 00:41:17;;;;;;;13.10;9.40;;;18.60;99.90;;;;;;5039092;28;20100;-74
2023/06/06 00:43:44;;;;;;;14.70;10.00;;;18.50;99.90;;;;;;5037452;28;20858;-74
2023/06/06 00:46:10;;;;;;;13.40;9.05;;;18.50;99.90;;;;;;5036206;28;20443;-74
2023/06/06 00:48:36;;;;;;;13.70;9.52;;;18.50;99.90;;;;;;5035388;28;20044;-74
2023/06/06 00:51:02;;;;;;;11.82;9.85;;;18.40;99.90;;;;;;5043052;28;20024;-74
2023/06/06 00:53:28;;;;;;;14.60;10.52;;;18.40;99.90;;;;;;5042765;28;20024;-74
2023/06/06 00:55:53;;;;;;;15.27;9.98;;;18.40;99.90;;;;;;5040707;28;20021;-74
2023/06/06 00:58:19;;;;;;;14.57;9.82;;;18.40;99.90;;;;;;5037149;28;20083;-74
2023/06/06 01:00:46;;;;;;;14.32;9.55;;;18.40;99.90;;;;;;5042320;28;20043;-74
2023/06/06 01:03:15;;;;;;;15.60;10.60;;;18.40;99.90;;;;;;5041755;28;20473;-74
2023/06/06 01:05:40;;;;;;;16.45;10.73;;;18.30;99.90;;;;;;5043798;28;20025;-74
2023/06/06 01:08:07;;;;;;;14.80;10.18;;;18.30;99.90;;;;;;5045978;28;20020;-74
2023/06/06 01:10:37;;;;;;;16.27;10.20;;;18.20;99.90;;;;;;5040214;28;20028;-74
2023/06/06 01:13:33;;;;;;;16.15;10.25;;;18.20;99.90;;;;;;5040169;28;20050;-74
2023/06/06 01:16:05;;;;;;;12.52;9.90;;;18.10;99.90;;;;;;5039508;28;20087;-74
2023/06/06 01:18:34;;;;;;;17.02;10.10;;;18.00;99.90;;;;;;5042134;28;20033;-74
2023/06/06 01:21:00;;;;;;;18.00;9.82;;;17.90;99.90;;;;;;5043545;28;20430;-74
2023/06/06 01:23:27;;;;;;;13.40;10.95;;;17.90;99.90;;;;;;5043244;28;20033;-74
2023/06/06 01:25:53;;;;;;;15.95;10.48;;;17.90;99.90;;;;;;5041289;28;20086;-73
2023/06/06 01:28:20;;;;;;;15.07;10.73;;;17.90;99.90;;;;;;5044124;28;20021;-74
2023/06/06 01:30:46;;;;;;;15.23;11.02;;;17.80;99.90;;;;;;5042769;28;20536;-75
2023/06/06 01:33:43;;;;;;;14.38;9.73;;;17.90;99.90;;;;;;5038386;28;20075;-75
2023/06/06 01:36:35;;;;;;;17.80;10.43;;;17.90;99.90;;;;;;5037472;28;20033;-75
2023/06/06 01:39:07;;;;;;;14.20;10.55;;;17.80;99.90;;;;;;5040626;28;20060;-75
2023/06/06 01:41:36;;;;;;;12.77;10.70;;;17.80;99.90;;;;;;5040713;28;20016;-75
2023/06/06 01:44:03;;;;;;;15.40;10.80;;;17.70;99.90;;;;;;5042845;28;20030;-75
2023/06/06 01:46:30;;;;;;;17.45;10.70;;;17.70;99.90;;;;;;5041516;28;20013;-75
2023/06/06 01:48:56;;;;;;;18.27;11.85;;;17.70;99.90;;;;;;5009849;28;20242;-75
2023/06/06 01:51:26;;;;;;;17.77;12.38;;;17.60;99.90;;;;;;5036612;28;20029;-75
2023/06/06 01:53:53;;;;;;;17.40;11.07;;;17.60;99.90;;;;;;5039417;28;20112;-74
2023/06/06 01:56:21;;;;;;;17.27;11.45;;;17.50;99.90;;;;;;5040880;28;20029;-75
2023/06/06 01:58:48;;;;;;;19.83;11.70;;;17.50;99.90;;;;;;5037390;28;20071;-74
2023/06/06 02:01:14;;;;;;;17.58;11.75;;;17.50;99.90;;;;;;5040113;28;20458;-74
2023/06/06 02:03:40;;;;;;;18.15;11.73;;;17.40;99.90;;;;;;5043786;28;20030;-75
2023/06/06 02:06:05;;;;;;;18.17;11.32;;;17.50;99.90;;;;;;5041615;28;20013;-75
2023/06/06 02:08:31;;;;;;;17.58;11.85;;;17.40;99.90;;;;;;5043592;28;20112;-74
2023/06/06 02:10:57;;;;;;;16.95;11.27;;;17.40;99.90;;;;;;5044598;28;20025;-74
2023/06/06 02:13:22;;;;;;;19.48;11.48;;;17.40;99.90;;;;;;5044630;28;20071;-75
2023/06/06 02:15:48;;;;;;;16.00;11.52;;;17.30;99.90;;;;;;5039282;28;20056;-74
2023/06/06 02:18:14;;;;;;;16.70;11.55;;;17.30;99.90;;;;;;5040854;28;20466;-74
2023/06/06 02:20:40;;;;;;;17.92;12.15;;;17.30;99.90;;;;;;5039213;28;20501;-74
2023/06/06 02:23:06;;;;;;;19.52;11.90;;;17.30;99.90;;;;;;5040444;28;20060;-74
2023/06/06 02:25:33;;;;;;;16.98;12.35;;;17.30;99.90;;;;;;5040744;28;20547;-74
2023/06/06 02:27:59;;;;;;;18.95;12.38;;;17.20;99.90;;;;;;5038562;28;20083;-74
2023/06/06 02:30:25;;;;;;;17.02;10.73;;;17.30;99.90;;;;;;5035175;28;20430;-74
2023/06/06 02:32:51;;;;;;;17.90;10.63;;;17.20;99.90;;;;;;5045342;28;20060;-74
2023/06/06 02:35:19;;;;;;;21.73;12.32;;;17.10;99.90;;;;;;5041607;28;20036;-74
2023/06/06 02:37:45;;;;;;;17.60;10.73;;;17.10;99.90;;;;;;5036896;28;20037;-74
2023/06/06 02:40:12;;;;;;;19.38;11.90;;;17.10;99.90;;;;;;5040478;28;20953;-74
2023/06/06 02:42:38;;;;;;;19.50;12.35;;;17.00;99.90;;;;;;5038325;28;20385;-74
2023/06/06 02:45:08;;;;;;;17.58;11.93;;;17.00;99.90;;;;;;5037733;28;20442;-74
2023/06/06 02:47:34;;;;;;;14.77;11.15;;;17.00;99.90;;;;;;5037611;28;20036;-74
2023/06/06 02:50:01;;;;;;;17.75;11.35;;;16.90;99.90;;;;;;5036742;28;20419;-74
2023/06/06 02:52:28;;;;;;;16.48;12.35;;;16.90;99.90;;;;;;5040525;28;20089;-74
2023/06/06 02:54:54;;;;;;;17.27;12.32;;;16.80;99.90;;;;;;5040351;28;20028;-74
2023/06/06 02:57:21;;;;;;;17.10;12.10;;;16.90;99.90;;;;;;5035760;28;20060;-74
2023/06/06 02:59:47;;;;;;;17.92;12.73;;;16.80;99.90;;;;;;5040734;28;20369;-74
2023/06/06 03:02:15;;;;;;;20.00;12.52;;;16.80;99.90;;;;;;5036593;28;20025;-74
2023/06/06 03:04:43;;;;;;;20.60;12.02;;;16.80;99.90;;;;;;5036401;28;20104;-74
2023/06/06 03:07:10;;;;;;;19.35;11.68;;;16.80;99.90;;;;;;5039599;28;20033;-74
2023/06/06 03:09:36;;;;;;;18.08;12.32;;;16.80;99.90;;;;;;5041859;28;20009;-74
2023/06/06 03:12:03;;;;;;;18.58;11.88;;;16.80;99.90;;;;;;5041033;28;20041;-74
2023/06/06 03:14:28;;;;;;;24.70;13.13;;;16.70;99.90;;;;;;5043195;28;20024;-74
2023/06/06 03:16:56;;;;;;;19.00;12.00;;;16.60;99.90;;;;;;5039113;28;20041;-74
2023/06/06 03:19:22;;;;;;;17.63;12.18;;;16.70;99.90;;;;;;5039028;28;20037;-74
2023/06/06 03:21:48;;;;;;;18.98;13.43;;;16.60;99.90;;;;;;5040020;28;20009;-74
2023/06/06 03:24:15;;;;;;;16.75;12.18;;;16.60;99.90;;;;;;5037456;28;20524;-74
2023/06/06 03:26:44;;;;;;;20.92;12.80;;;16.60;99.90;;;;;;5041553;28;20083;-74
2023/06/06 03:29:10;;;;;;;23.38;13.00;;;16.50;99.90;;;;;;5037694;28;20131;-74
2023/06/06 03:31:37;;;;;;;22.35;12.68;;;16.50;99.90;;;;;;5041310;28;20114;-74
2023/06/06 03:34:03;;;;;;;20.17;12.05;;;16.50;99.90;;;;;;5036051;28;20469;-74
2023/06/06 03:36:32;;;;;;;20.75;11.98;;;16.50;99.90;;;;;;5037492;28;20040;-74
2023/06/06 03:38:59;;;;;;;22.77;12.40;;;16.50;99.90;;;;;;5041962;28;20021;-73
2023/06/06 03:41:25;;;;;;;19.65;12.52;;;16.40;99.90;;;;;;5040839;28;20051;-74
2023/06/06 03:43:51;;;;;;;19.83;12.15;;;16.30;99.90;;;;;;5039035;28;20037;-74
2023/06/06 03:46:17;;;;;;;19.13;12.05;;;16.30;99.90;;;;;;5039263;28;20368;-74
2023/06/06 03:48:42;;;;;;;25.02;13.30;;;16.20;99.90;;;;;;5036146;28;20501;-74
2023/06/06 03:51:08;;;;;;;21.98;13.57;;;16.30;99.90;;;;;;5037937;28;20512;-73
2023/06/06 03:53:34;;;;;;;22.58;12.73;;;16.30;99.90;;;;;;5039188;28;20033;-75
2023/06/06 03:56:01;;;;;;;21.73;13.73;;;16.20;99.90;;;;;;5040424;28;20035;-74
2023/06/06 03:58:29;;;;;;;19.75;13.50;;;16.20;99.90;;;;;;5033327;28;20559;-74
2023/06/06 04:00:58;;;;;;;19.38;12.95;;;16.20;99.90;;;;;;5041294;28;20128;-74
2023/06/06 04:03:24;;;;;;;17.30;12.23;;;16.20;99.90;;;;;;5041191;28;20022;-74
2023/06/06 04:05:50;;;;;;;20.15;12.43;;;16.10;99.90;;;;;;5040892;28;20389;-74
2023/06/06 04:08:16;;;;;;;18.95;12.57;;;16.10;99.90;;;;;;5033250;28;20469;-73
2023/06/06 04:10:42;;;;;;;24.63;12.60;;;16.20;99.90;;;;;;5040180;28;20118;-73
2023/06/06 04:13:07;;;;;;;20.85;12.73;;;16.20;99.90;;;;;;5040875;28;20096;-74
2023/06/06 04:15:34;;;;;;;17.58;11.98;;;16.10;99.90;;;;;;5037148;28;20385;-74
2023/06/06 04:18:00;;;;;;;17.77;13.13;;;16.10;99.90;;;;;;5038872;28;20029;-73
2023/06/06 04:20:27;;;;;;;18.00;11.82;;;15.90;99.90;;;;;;5036348;28;20032;-73
2023/06/06 04:22:53;;;;;;;17.63;12.77;;;16.00;99.90;;;;;;5036896;28;20037;-74
2023/06/06 04:25:19;;;;;;;19.63;13.05;;;16.00;99.90;;;;;;5042533;28;20026;-74
2023/06/06 04:27:45;;;;;;;19.10;12.35;;;16.00;99.90;;;;;;5040252;28;20029;-74
2023/06/06 04:30:22;;;;;;;19.80;12.15;;;16.00;99.90;;;;;;5036448;28;20017;-74
2023/06/06 04:32:52;;;;;;;19.65;12.52;;;16.10;99.90;;;;;;5041005;28;20024;-74
2023/06/06 04:35:18;;;;;;;19.98;12.07;;;16.10;99.90;;;;;;5036852;28;20163;-74
2023/06/06 04:37:47;;;;;;;18.83;11.70;;;16.10;99.90;;;;;;5040671;28;20037;-73
2023/06/06 04:40:14;;;;;;;20.40;12.73;;;16.00;99.90;;;;;;5036239;28;20020;-74
2023/06/06 04:42:40;;;;;;;19.23;11.93;;;16.00;99.90;;;;;;5038637;28;20793;-73
2023/06/06 04:45:06;;;;;;;21.52;14.02;;;15.90;99.90;;;;;;5041762;28;20029;-73
2023/06/06 04:47:34;;;;;;;19.30;12.88;;;16.00;99.90;;;;;;5039394;28;20031;-73
2023/06/06 04:49:59;;;;;;;20.92;13.70;;;16.00;99.90;;;;;;5035772;28;20099;-74
2023/06/06 04:52:25;;;;;;;21.75;13.35;;;16.00;99.90;;;;;;5038316;28;20515;-73
2023/06/06 04:54:52;;;;;;;20.33;13.50;;;16.00;99.90;;;;;;5039717;28;20040;-73
2023/06/06 04:57:19;;;;;;;21.60;13.13;;;16.00;99.90;;;;;;5043497;28;20044;-73
2023/06/06 04:59:52;;;;;;;21.02;12.77;;;15.90;99.90;;;;;;5038179;28;20017;-74
2023/06/06 05:02:20;;;;;;;19.88;12.68;;;15.90;99.90;;;;;;5037702;28;20112;-74
2023/06/06 05:04:48;;;;;;;19.08;13.15;;;15.90;99.90;;;;;;5041078;28;20045;-74
2023/06/06 05:07:14;;;;;;;20.80;11.85;;;16.00;99.90;;;;;;5040614;28;20032;-73
2023/06/06 05:09:39;;;;;;;21.33;11.40;;;16.00;99.90;;;;;;5038756;28;20026;-73
2023/06/06 05:12:05;;;;;;;17.48;12.15;;;16.00;99.90;;;;;;5042360;28;20039;-73
2023/06/06 05:14:31;;;;;;;19.38;12.63;;;16.10;99.90;;;;;;5037571;28;20033;-73
2023/06/06 05:16:57;;;;;;;21.02;12.80;;;16.00;99.90;;;;;;5037496;28;20055;-73
2023/06/06 05:19:23;;;;;;;19.48;13.02;;;16.00;99.90;;;;;;5034943;28;20368;-73
2023/06/06 05:21:48;;;;;;;20.23;12.95;;;16.00;99.90;;;;;;5037935;28;20082;-74
2023/06/06 05:24:15;;;;;;;17.30;13.02;;;16.10;99.90;;;;;;5038646;28;20025;-74
2023/06/06 05:26:43;;;;;;;18.90;12.90;;;16.10;99.90;;;;;;5038835;28;20025;-73
2023/06/06 05:29:10;;;;;;;18.42;13.45;;;16.10;99.90;;;;;;5036971;28;20026;-73
2023/06/06 05:31:36;;;;;;;18.23;12.43;;;15.90;99.90;;;;;;5036065;28;20017;-74
2023/06/06 05:34:03;;;;;;;20.25;12.93;;;15.90;99.90;;;;;;5041202;28;20036;-74
2023/06/06 05:36:28;;;;;;;20.23;12.25;;;16.00;99.90;;;;;;5040099;28;20025;-74
2023/06/06 05:38:54;;;;;;;18.25;12.13;;;15.90;99.90;;;;;;5041024;28;20037;-73
2023/06/06 05:41:20;;;;;;;20.15;13.15;;;15.90;99.90;;;;;;5039491;28;20071;-74
2023/06/06 05:43:50;;;;;;;19.77;12.38;;;15.90;99.90;;;;;;5037574;28;20036;-73
2023/06/06 05:46:16;;;;;;;16.55;11.93;;;15.80;99.90;;;;;;5039192;28;20022;-73
2023/06/06 05:48:42;;;;;;;21.65;12.93;;;15.90;99.90;;;;;;5041784;28;20120;-74
2023/06/06 05:51:08;;;;;;;18.13;12.20;;;15.90;99.90;;;;;;5041209;28;20021;-74
2023/06/06 05:53:34;;;;;;;15.80;11.57;;;15.70;99.90;;;;;;5041939;28;20060;-74
2023/06/06 05:56:00;;;;;;;16.92;11.45;;;15.80;99.90;;;;;;5040615;28;20040;-74
2023/06/06 05:58:26;;;;;;;25.40;12.45;;;15.90;99.90;;;;;;5042141;28;20029;-73
2023/06/06 06:00:51;;;;;;;24.60;14.10;;;15.90;99.90;;;;;;5042876;28;20045;-74
2023/06/06 06:03:17;;;;;;;21.27;13.13;;;15.90;99.90;;;;;;5043807;28;20029;-75
2023/06/06 06:05:43;;;;;;;20.00;12.38;;;15.90;99.90;;;;;;5040975;28;20412;-74
2023/06/06 06:08:09;;;;;;;17.52;12.75;;;15.90;99.90;;;;;;5041561;28;20044;-74
2023/06/06 06:10:36;;;;;;;18.65;12.30;;;15.90;99.90;;;;;;5037753;28;20091;-77
2023/06/06 06:13:02;;;;;;;17.13;12.10;;;16.00;99.90;;;;;;5038753;28;20057;-77
2023/06/06 06:15:33;;;;;;;17.17;12.18;;;15.90;99.90;;;;;;5036054;28;20105;-77
2023/06/06 06:18:00;;;;;;;23.95;13.80;;;15.90;99.90;;;;;;5043072;28;20059;-77
2023/06/06 06:20:26;;;;;;;19.70;13.30;;;15.90;99.90;;;;;;5040109;28;20095;-78
2023/06/06 06:22:51;;;;;;;18.02;13.38;;;16.00;99.90;;;;;;5036694;28;20040;-72
2023/06/06 06:25:17;;;;;;;24.73;13.25;;;16.10;99.90;;;;;;5035336;28;20026;-80
2023/06/06 06:27:44;;;;;;;20.13;13.70;;;16.20;99.90;;;;;;5040287;28;20542;-78
2023/06/06 06:30:11;;;;;;;19.10;13.15;;;16.20;99.90;;;;;;5037096;28;20030;-78
2023/06/06 06:32:38;;;;;;;23.42;13.90;;;16.20;99.90;;;;;;5040787;28;20052;-77
2023/06/06 06:35:05;;;;;;;22.20;13.05;;;16.20;99.90;;;;;;5042039;28;20495;-78
2023/06/06 06:37:33;;;;;;;28.02;14.05;;;16.30;99.90;;;;;;5038176;28;20033;-78
2023/06/06 06:39:59;;;;;;;22.10;13.32;;;16.20;99.90;;;;;;5036548;28;20423;-78
2023/06/06 06:42:26;;;;;;;20.65;12.35;;;16.30;99.90;;;;;;5039803;28;20025;-77
2023/06/06 06:44:52;;;;;;;19.85;13.45;;;16.30;99.90;;;;;;5039125;28;20018;-77
2023/06/06 06:47:18;;;;;;;18.55;12.23;;;16.30;99.90;;;;;;5042538;28;20033;-78
2023/06/06 06:49:44;;;;;;;18.55;12.88;;;16.30;99.90;;;;;;5037962;28;20656;-77
2023/06/06 06:52:15;;;;;;;20.42;13.25;;;16.40;99.90;;;;;;5040119;28;20083;-78
2023/06/06 06:54:54;;;;;;;22.73;13.23;;;16.60;99.90;;;;;;5038884;28;20021;-78
2023/06/06 06:57:21;;;;;;;17.90;12.55;;;16.70;99.90;;;;;;5040123;28;20040;-77
2023/06/06 06:59:48;;;;;;;17.98;12.43;;;16.80;99.90;;;;;;5038419;28;20087;-77
2023/06/06 07:02:14;;;;;;;17.90;12.27;;;16.90;99.90;;;;;;5041452;28;20016;-77
2023/06/06 07:04:40;;;;;;;22.83;13.73;;;16.80;99.90;;;;;;5040762;28;20100;-78
2023/06/06 07:07:06;;;;;;;24.73;13.00;;;17.00;99.90;;;;;;5039344;28;20140;-77
2023/06/06 07:09:32;;;;;;;20.27;13.60;;;17.20;99.90;;;;;;5041381;28;20374;-78
2023/06/06 07:11:58;;;;;;;20.30;12.95;;;17.40;99.90;;;;;;5040940;28;20033;-78
2023/06/06 07:14:25;;;;;;;20.15;13.00;;;17.40;99.90;;;;;;5041482;28;20361;-75
2023/06/06 07:16:51;;;;;;;19.17;12.52;;;17.50;99.90;;;;;;5040449;28;20033;-75
2023/06/06 07:19:17;;;;;;;28.60;13.95;;;17.60;99.90;;;;;;5038023;28;20086;-75
2023/06/06 07:21:43;;;;;;;17.48;12.73;;;17.50;99.90;;;;;;5038154;28;20553;-75
2023/06/06 07:24:09;;;;;;;22.42;14.50;;;17.60;99.90;;;;;;5040038;28;20116;-75
2023/06/06 07:26:35;;;;;;;19.83;13.00;;;17.80;99.90;;;;;;5040011;28;20026;-75
2023/06/06 07:29:01;;;;;;;21.42;13.63;;;17.90;99.90;;;;;;5042395;28;20111;-75
2023/06/06 07:31:27;;;;;;;23.52;13.68;;;18.00;99.90;;;;;;5040571;28;20511;-75
2023/06/06 07:33:53;;;;;;;18.25;13.10;;;18.10;99.90;;;;;;5039428;28;20021;-75
2023/06/06 07:36:18;;;;;;;16.80;12.50;;;18.20;99.90;;;;;;5039779;28;20430;-76
2023/06/06 07:38:44;;;;;;;21.15;13.57;;;18.40;99.90;;;;;;5038625;28;20040;-75
2023/06/06 07:41:10;;;;;;;20.80;14.88;;;18.50;99.90;;;;;;5039061;28;20028;-76
2023/06/06 07:43:36;;;;;;;18.15;13.25;;;18.60;99.90;;;;;;5039647;28;20638;-75
2023/06/06 07:46:01;;;;;;;17.73;12.40;;;18.80;99.90;;;;;;5038295;28;20025;-75
2023/06/06 07:48:27;;;;;;;18.83;12.57;;;18.80;99.90;;;;;;5039310;28;20032;-75
2023/06/06 07:50:54;;;;;;;20.70;13.57;;;18.70;99.90;;;;;;5038025;28;20071;-75
2023/06/06 07:53:20;;;;;;;17.75;12.05;;;18.90;99.90;;;;;;5044855;28;20019;-75
2023/06/06 07:55:47;;;;;;;17.90;11.85;;;19.10;99.90;;;;;;5040946;28;20524;-75
2023/06/06 07:58:12;;;;;;;18.38;12.63;;;19.20;99.90;;;;;;5039242;28;20385;-76
2023/06/06 08:00:41;;;;;;;19.83;12.73;;;19.20;99.90;;;;;;5034831;28;20022;-75
2023/06/06 08:03:07;;;;;;;17.88;11.00;;;19.40;99.90;;;;;;5035879;28;20065;-75
2023/06/06 08:05:33;;;;;;;16.55;12.77;;;19.60;99.90;;;;;;5037007;28;20048;-75
2023/06/06 08:08:00;;;;;;;16.52;11.75;;;19.50;99.90;;;;;;5038616;28;20563;-75
2023/06/06 08:10:27;;;;;;;19.88;12.07;;;19.70;99.90;;;;;;5038090;28;20474;-75
2023/06/06 08:12:52;;;;;;;15.57;11.77;;;19.90;99.90;;;;;;5040369;28;20021;-76
2023/06/06 08:15:18;;;;;;;16.83;11.05;;;20.00;99.90;;;;;;5041584;28;20044;-76
2023/06/06 08:17:45;;;;;;;18.13;12.05;;;20.10;99.90;;;;;;5042716;28;20410;-75
2023/06/06 08:20:11;;;;;;;20.00;12.27;;;20.30;99.90;;;;;;5041253;28;20102;-75
2023/06/06 08:22:38;;;;;;;20.13;11.50;;;20.40;99.90;;;;;;5036909;28;20112;-75
2023/06/06 08:25:08;;;;;;;17.55;12.43;;;20.30;99.90;;;;;;5036556;28;20013;-75
2023/06/06 08:27:34;;;;;;;17.92;12.07;;;20.50;99.90;;;;;;5036864;28;20113;-79
2023/06/06 08:30:01;;;;;;;17.58;12.48;;;20.70;99.90;;;;;;5037577;28;20036;-78
2023/06/06 08:32:30;;;;;;;19.17;13.27;;;20.80;99.90;;;;;;5036213;28;20140;-78
2023/06/06 08:34:56;;;;;;;16.00;10.85;;;21.00;99.90;;;;;;5039542;28;20648;-79
2023/06/06 08:37:22;;;;;;;17.13;12.00;;;21.00;99.90;;;;;;5042713;28;20035;-81
2023/06/06 08:39:50;;;;;;;17.23;12.02;;;21.20;99.90;;;;;;5036542;28;20025;-81
2023/06/06 08:42:21;;;;;;;20.63;11.93;;;21.10;99.90;;;;;;5038448;28;20048;-80
2023/06/06 08:44:48;;;;;;;14.60;10.40;;;21.30;99.90;;;;;;5033408;28;20429;-79
2023/06/06 08:47:13;;;;;;;17.80;12.23;;;21.60;99.90;;;;;;5035753;28;20485;-79
2023/06/06 08:49:39;;;;;;;18.27;11.18;;;21.70;99.90;;;;;;5035077;28;20029;-79
2023/06/06 08:52:06;;;;;;;16.63;10.43;;;21.80;99.90;;;;;;5036310;28;22304;-79
2023/06/06 08:54:32;;;;;;;14.90;11.95;;;21.80;99.90;;;;;;5037429;28;20524;-80
2023/06/06 08:57:07;;;;;;;16.38;10.85;;;22.10;99.90;;;;;;5037960;28;20033;-78
2023/06/06 08:59:36;;;;;;;12.98;10.27;;;22.20;99.90;;;;;;5037283;28;20030;-79
2023/06/06 09:02:05;;;;;;;14.43;10.73;;;22.40;99.90;;;;;;5043140;28;20195;-79
2023/06/06 09:04:33;;;;;;;13.27;10.13;;;22.60;99.90;;;;;;5038019;28;20021;-78
2023/06/06 09:07:08;;;;;;;15.23;11.27;;;22.70;99.90;;;;;;5043533;28;20057;-79
2023/06/06 09:09:36;;;;;;;18.42;10.88;;;22.60;99.90;;;;;;5041134;28;20397;-78
2023/06/06 09:12:02;;;;;;;17.27;10.15;;;22.70;99.90;;;;;;5041883;28;20354;-78
2023/06/06 09:14:28;;;;;;;14.63;9.50;;;22.70;99.90;;;;;;5038029;28;20040;-79
2023/06/06 09:16:54;;;;;;;12.82;9.95;;;22.70;99.90;;;;;;5041325;28;20055;-78
2023/06/06 09:19:25;;;;;;;15.38;10.70;;;23.00;99.90;;;;;;5041949;28;20072;-78
2023/06/06 09:21:51;;;;;;;15.13;10.38;;;23.00;99.90;;;;;;5044334;28;20027;-78
2023/06/06 09:24:17;;;;;;;13.25;9.30;;;23.10;99.90;;;;;;5042374;28;20037;-78
2023/06/06 09:26:42;;;;;;;18.17;10.43;;;23.20;99.90;;;;;;5040216;28;20107;-79
2023/06/06 09:29:11;;;;;;;13.40;8.65;;;23.40;99.90;;;;;;5039813;28;20112;-78
2023/06/06 09:31:38;;;;;;;12.90;8.82;;;23.50;99.90;;;;;;5040536;28;20037;-79
2023/06/06 09:34:05;;;;;;;15.10;9.23;;;23.50;99.90;;;;;;5036957;28;20385;-80
2023/06/06 09:36:34;;;;;;;11.70;9.50;;;23.50;99.90;;;;;;5040632;28;20036;-75
2023/06/06 09:39:14;;;;;;;15.30;9.82;;;23.50;99.90;;;;;;5039552;28;20020;-77
2023/06/06 09:41:46;;;;;;;14.18;9.50;;;23.60;99.90;;;;;;5037787;28;20044;-77
2023/06/06 09:44:20;;;;;;;19.15;10.20;;;23.80;99.90;;;;;;5038022;28;20028;-77
2023/06/06 09:46:49;;;;;;;15.90;9.15;;;23.80;99.90;;;;;;5034938;28;20044;-78
2023/06/06 09:49:14;;;;;;;13.00;9.82;;;24.00;99.90;;;;;;5037874;28;20048;-78
2023/06/06 09:51:44;;;;;;;12.25;8.88;;;24.30;99.90;;;;;;5038360;28;20030;-78
2023/06/06 09:54:11;;;;;;;15.50;10.55;;;24.30;99.90;;;;;;5041738;28;20048;-76
2023/06/06 09:56:40;;;;;;;12.07;8.82;;;24.20;99.90;;;;;;5039202;28;20033;-79
2023/06/06 09:59:08;;;;;;;13.75;9.15;;;24.50;99.90;;;;;;5044116;28;20021;-78
2023/06/06 10:01:37;;;;;;;14.95;9.82;;;24.40;99.90;;;;;;5040353;28;21028;-78
2023/06/06 10:04:04;;;;;;;13.27;7.47;;;24.50;99.90;;;;;;5043071;28;20032;-77
2023/06/06 10:06:39;;;;;;;11.05;7.97;;;24.60;99.90;;;;;;5043101;28;20371;-78
2023/06/06 10:09:05;;;;;;;12.02;8.30;;;24.70;99.90;;;;;;5044926;28;20031;-77
2023/06/06 10:11:36;;;;;;;11.82;8.98;;;24.80;99.90;;;;;;5042252;28;20037;-77
2023/06/06 10:14:03;;;;;;;14.93;8.88;;;24.80;99.90;;;;;;5041123;28;20032;-78
2023/06/06 10:16:30;;;;;;;13.93;8.98;;;25.00;99.90;;;;;;5032496;28;20047;-78
2023/06/06 10:18:57;;;;;;;10.90;8.20;;;24.90;99.90;;;;;;5034097;28;20033;-78
2023/06/06 10:21:24;;;;;;;10.07;8.52;;;25.10;99.90;;;;;;5034584;28;20029;-77
2023/06/06 10:23:51;;;;;;;11.93;8.02;;;25.00;99.90;;;;;;5035102;28;20362;-77
2023/06/06 10:26:55;;;;;;;15.73;8.68;;;25.20;99.90;;;;;;5036805;28;20021;-81
2023/06/06 10:29:30;;;;;;;17.33;8.85;;;25.30;99.90;;;;;;5034358;28;20545;-81
2023/06/06 10:32:14;;;;;;;17.08;9.93;;;25.20;99.90;;;;;;5039376;28;20385;-81
2023/06/06 10:34:43;;;;;;;11.43;8.13;;;25.20;99.90;;;;;;5040487;28;20029;-77
2023/06/06 10:37:25;;;;;;;12.98;7.65;;;25.20;99.90;;;;;;5037756;28;20041;-75
2023/06/06 10:40:05;;;;;;;12.88;8.40;;;25.40;99.90;;;;;;5038008;28;20047;-79
2023/06/06 10:42:39;;;;;;;9.93;8.82;;;25.40;99.90;;;;;;5037066;28;20033;-77
2023/06/06 10:45:07;;;;;;;12.70;8.32;;;25.40;99.90;;;;;;5034620;28;20025;-78
2023/06/06 10:47:42;;;;;;;8.98;7.63;;;25.70;99.90;;;;;;5040111;28;20481;-80
2023/06/06 10:50:08;;;;;;;10.73;7.60;;;26.00;99.90;;;;;;5036547;28;20040;-79
2023/06/06 10:52:54;;;;;;;11.35;7.90;;;26.10;99.90;;;;;;5039126;28;20021;-80
2023/06/06 10:55:22;;;;;;;11.98;8.30;;;26.40;99.90;;;;;;5039694;28;20050;-79
2023/06/06 10:58:05;;;;;;;12.98;7.70;;;26.50;99.90;;;;;;5039485;28;20043;-78
2023/06/06 11:00:40;;;;;;;14.93;9.32;;;26.40;99.90;;;;;;5034796;28;20489;-80
2023/06/06 11:03:07;;;;;;;9.73;7.45;;;26.40;99.90;;;;;;5041229;28;20393;-79
2023/06/06 11:05:53;;;;;;;13.27;8.90;;;26.60;99.90;;;;;;5036928;28;20025;-78
2023/06/06 11:08:30;;;;;;;15.63;9.50;;;26.90;99.90;;;;;;5037904;28;21284;-78
2023/06/06 11:11:21;;;;;;;12.30;7.97;;;26.60;99.90;;;;;;5041819;28;20037;-79
2023/06/06 11:14:01;;;;;;;14.68;8.20;;;26.90;99.90;;;;;;5039674;28;20020;-78
2023/06/06 11:16:58;;;;;;;13.45;8.00;;;27.00;99.90;;;;;;5039707;28;20124;-75
2023/06/06 11:19:31;;;;;;;13.70;6.35;;;27.30;99.60;;;;;;5032520;28;20047;-78
2023/06/06 11:21:59;;;;;;;14.13;8.25;;;27.40;99.00;;;;;;5040722;28;20028;-77
2023/06/06 11:24:35;;;;;;;10.57;8.05;;;27.10;99.50;;;;;;5036082;28;20120;-79
2023/06/06 11:27:01;;;;;;;12.07;7.57;;;27.40;98.80;;;;;;5037990;28;20032;-75
2023/06/06 11:29:27;;;;;;;19.63;8.25;;;27.50;98.20;;;;;;5040141;28;20020;-83
2023/06/06 11:31:53;;;;;;;9.27;6.90;;;27.40;98.50;;;;;;5040541;28;20100;-89
2023/06/06 11:34:20;;;;;;;10.73;7.88;;;27.60;98.90;;;;;;5043953;28;20143;-78
2023/06/06 11:36:51;;;;;;;13.68;8.10;;;27.80;97.90;;;;;;5042870;28;20032;-77
2023/06/06 11:39:19;;;;;;;11.57;7.65;;;28.00;97.50;;;;;;5035287;28;20787;-80
2023/06/06 11:41:47;;;;;;;10.85;6.60;;;28.00;97.80;;;;;;5037764;28;20017;-77
2023/06/06 11:44:15;;;;;;;7.95;6.30;;;28.10;97.10;;;;;;5035404;28;20064;-78
2023/06/06 11:46:48;;;;;;;6.18;5.68;;;28.30;96.40;;;;;;5033057;28;20425;-79
2023/06/06 11:49:14;;;;;;;8.73;5.45;;;28.20;96.00;;;;;;5035403;28;20017;-80
2023/06/06 11:51:41;;;;;;;9.85;6.40;;;28.00;97.10;;;;;;5034721;28;20035;-81
2023/06/06 11:54:15;;;;;;;11.60;6.50;;;28.00;97.90;;;;;;5033502;28;20026;-81
2023/06/06 11:56:41;;;;;;;10.77;7.00;;;28.10;98.10;;;;;;5033966;28;20080;-76
2023/06/06 11:59:08;;;;;;;8.13;6.45;;;28.20;98.70;;;;;;5031755;28;20040;-84
2023/06/06 12:01:34;;;;;;;11.45;7.60;;;28.30;97.10;;;;;;5039225;28;20030;-75
2023/06/06 12:04:00;;;;;;;9.85;7.13;;;28.50;96.30;;;;;;5039553;28;20484;-75
2023/06/06 12:06:25;;;;;;;13.40;9.75;;;28.60;96.00;;;;;;5038347;28;20034;-78
2023/06/06 12:08:51;;;;;;;9.15;6.80;;;28.30;95.60;;;;;;5033997;28;20026;-73
2023/06/06 12:11:24;;;;;;;10.05;7.07;;;28.50;96.10;;;;;;5039915;28;20495;-73
2023/06/06 12:13:51;;;;;;;10.82;6.43;;;28.60;95.20;;;;;;5040263;28;20465;-75
2023/06/06 12:16:28;;;;;;;9.82;6.30;;;28.60;97.10;;;;;;5038136;28;20041;-79
2023/06/06 12:18:54;;;;;;;9.90;6.43;;;28.50;95.80;;;;;;5039036;28;20125;-80
2023/06/06 12:21:21;;;;;;;13.75;7.20;;;28.40;97.10;;;;;;5033938;28;20032;-78
2023/06/06 12:23:48;;;;;;;10.07;7.78;;;28.40;99.40;;;;;;5035990;28;20021;-82
2023/06/06 12:26:18;;;;;;;8.45;5.88;;;28.30;97.60;;;;;;5037422;28;20029;-78
2023/06/06 12:28:57;;;;;;;7.05;6.32;;;28.40;98.40;;;;;;5038861;28;20031;-78
2023/06/06 12:31:24;;;;;;;11.23;6.47;;;28.50;97.60;;;;;;5040532;28;20032;-84
2023/06/06 12:33:51;;;;;;;8.43;7.38;;;28.70;96.40;;;;;;5036949;28;20068;-83
2023/06/06 12:36:19;;;;;;;8.20;6.25;;;28.60;95.00;;;;;;5033722;28;20118;-82